Flight Track Log - Related Links

Times and Time Zones

All times are in EDT time to prevent confusion due to time zone crossing. See the N200NK flight status page for this flight to view local times or setup timezone preferences in your user account.

Time Position Orientation Groundspeed Altitude Reporting Facility
EDT Latitude Longitude Course Direction KTS MPH feet Rate Location/Type
Wed 12:14:56 PM 26.0756 -80.1381 103° East 150 173 500  Level Miami Center
Wed 12:15:39 PM 26.0692 -80.1075 103° East 156 180 1,600 1,326 Climbing Miami Center
Wed 12:16:22 PM 26.0631 -80.0775 103° East 157 181 2,400 1,418 Climbing Miami Center
Wed 12:16:34 PM 26.0575 -80.0600 109° East 175 201 2,900 1,742 Climbing Miami Center
Wed 12:17:24 PM 26.0261 -80.0325 142° Southeast 174 200 4,200 1,475 Climbing Miami Center
Wed 12:17:35 PM 26.0194 -80.0294 158° South 174 200 4,400 1,500 Climbing Miami Center
Wed 12:18:36 PM 25.9731 -80.0006 151° Southeast 174 200 6,000 1,381 Climbing Miami Center
Wed 12:19:28 PM 25.9406 -79.9789 149° Southeast 176 203 7,000 1,279 Climbing Miami Center
Wed 12:20:38 PM 25.8861 -79.9847 186° South 179 206 8,600 1,248 Climbing Miami Center
Wed 12:21:33 PM 25.8517 -80.0064 210° Southwest 178 205 9,600 1,282 Climbing Miami Center
Wed 12:22:35 PM 25.8081 -80.0350 211° Southwest 179 206 11,100 1,688 Climbing Miami Center
Wed 12:23:41 PM 25.7533 -80.0672 208° Southwest 164 189 13,200 1,597 Climbing Miami Center
Wed 12:24:39 PM 25.7153 -80.0867 205° Southwest 170 196 14,400 1,300 Climbing Miami Center
Wed 12:25:41 PM 25.6658 -80.0969 191° South 176 203 15,800 768 Climbing Miami Center
Wed 12:26:44 PM 25.6083 -80.1103 192° South 216 249 16,000 96 Climbing Miami Center
Wed 12:27:46 PM 25.5358 -80.1281 192° South 260 299 16,000 145 Level Miami Center
Wed 12:28:48 PM 25.4592 -80.1472 193° South 275 316 16,300 1,065 Climbing Miami Center
Wed 12:29:50 PM 25.3939 -80.1622 192° South 235 270 18,200 1,742 Climbing Miami Center
Wed 12:30:52 PM 25.3369 -80.1825 198° South 183 211 19,900 1,306 Climbing Miami Center
Wed 12:31:54 PM 25.3122 -80.2308 241° Southwest 179 206 20,900 528 Climbing Miami Center
Wed 12:32:57 PM 25.2839 -80.2842 240° Southwest 202 232 21,000 48 Climbing Miami Center
Wed 12:33:59 PM 25.2517 -80.3525 242° Southwest 247 284 21,000  Level Miami Center
Wed 12:35:01 PM 25.2175 -80.4250 242° Southwest 260 299 21,000  Level Miami Center
Wed 12:36:03 PM 25.1631 -80.4814 223° Southwest 274 315 21,000  Level Miami Center
Wed 12:37:06 PM 25.0739 -80.5033 193° South 275 316 21,000  Level Miami Center
Wed 12:38:08 PM 25.0003 -80.5272 196° South 276 318 21,000  Level Miami Center
Wed 12:39:10 PM 24.9289 -80.5617 204° Southwest 276 318 21,000  Level Miami Center
Wed 12:40:13 PM 24.8606 -80.5953 204° Southwest 272 313 21,000  Level Miami Center
Wed 12:41:15 PM 24.7900 -80.6281 203° Southwest 272 313 21,000  Level Miami Center
Wed 12:42:17 PM 24.7042 -80.6681 203° Southwest 279 321 21,000  Level Miami Center
Wed 12:43:19 PM 24.6339 -80.7011 203° Southwest 276 318 21,000  Level Miami Center
Wed 12:44:22 PM 24.5628 -80.7358 204° Southwest 276 318 21,000  Level Miami Center
Wed 12:45:24 PM 24.4911 -80.7681 202° Southwest 276 318 21,000  Level Miami Center
Wed 12:46:26 PM 24.4206 -80.8025 204° Southwest 277 319 21,000  Level Miami Center
Wed 12:47:29 PM 24.3456 -80.8372 203° Southwest 277 319 21,000  Level Miami Center
Wed 12:48:31 PM 24.2739 -80.8700 203° Southwest 277 319 21,000  Level Miami Center
Wed 12:49:33 PM 24.1872 -80.9111 203° Southwest 277 319 21,000  Level Miami Center
Wed 12:50:35 PM 24.1150 -80.9461 204° Southwest 279 321 21,000  Level Miami Center
Wed 12:51:38 PM 24.0475 -80.9783 204° Southwest 280 322 21,000  Level Miami Center
Wed 12:53:00 PM 23.9509 -81.0227 203° Southwest  Level FlightAware Approximate
Wed 01:00:00 PM 23.4589 -81.2485 203° Southwest  Level FlightAware Approximate
Wed 01:01:00 PM 23.3886 -81.2806 203° Southwest  Level FlightAware Approximate
Wed 01:02:00 PM 23.3183 -81.3127 203° Southwest  Level FlightAware Approximate
Wed 01:03:00 PM 23.2480 -81.3448 203° Southwest  Level FlightAware Approximate
Wed 01:04:00 PM 23.1776 -81.3768 203° Southwest  Level FlightAware Approximate
Wed 01:05:00 PM 23.1073 -81.4088 203° Southwest  Level FlightAware Approximate
Wed 01:06:00 PM 23.0370 -81.4408 203° Southwest  Level FlightAware Approximate
Wed 01:07:00 PM 22.9648 -81.4672 197° South  Level FlightAware Approximate
Wed 01:08:00 PM 22.8919 -81.4915 197° South  Level FlightAware Approximate
Wed 01:09:00 PM 22.8190 -81.5157 197° South  Level FlightAware Approximate
Wed 01:10:00 PM 22.7461 -81.5399 197° South  Level FlightAware Approximate
Wed 01:11:00 PM 22.6732 -81.5640 197° South  Level FlightAware Approximate
Wed 01:12:00 PM 22.6003 -81.5881 197° South  Level FlightAware Approximate
Wed 01:13:00 PM 22.5273 -81.6122 197° South  Level FlightAware Approximate
Wed 01:14:00 PM 22.4544 -81.6363 197° South  Level FlightAware Approximate
Wed 01:15:00 PM 22.3815 -81.6603 197° South  Level FlightAware Approximate
Wed 01:16:00 PM 22.3086 -81.6844 197° South  Level FlightAware Approximate
Wed 01:17:00 PM 22.2356 -81.7084 197° South  Level FlightAware Approximate
Wed 01:18:00 PM 22.1627 -81.7324 197° South  Level FlightAware Approximate
Wed 01:19:00 PM 22.0898 -81.7563 197° South  Level FlightAware Approximate
Wed 01:20:00 PM 22.0168 -81.7802 197° South  Level FlightAware Approximate
Wed 01:21:00 PM 21.9439 -81.8041 197° South  Level FlightAware Approximate
Wed 01:22:00 PM 21.8709 -81.8280 197° South  Level FlightAware Approximate
Wed 01:23:00 PM 21.7980 -81.8518 197° South  Level FlightAware Approximate
Wed 01:24:00 PM 21.7250 -81.8757 197° South  Level FlightAware Approximate
Wed 01:25:00 PM 21.6520 -81.8995 197° South  Level FlightAware Approximate
Wed 01:26:00 PM 21.5791 -81.9232 197° South  Level FlightAware Approximate
Wed 01:27:00 PM 21.5061 -81.9470 197° South  Level FlightAware Approximate
Wed 01:28:00 PM 21.4331 -81.9707 197° South  Level FlightAware Approximate
Wed 01:29:00 PM 21.3601 -81.9944 197° South  Level FlightAware Approximate
Wed 01:30:00 PM 21.2872 -82.0181 197° South  Level FlightAware Approximate
Wed 01:31:00 PM 21.2142 -82.0418 197° South  Level FlightAware Approximate
Wed 01:32:00 PM 21.1412 -82.0654 197° South  Level FlightAware Approximate
Wed 01:33:00 PM 21.0682 -82.0890 197° South  Level FlightAware Approximate
Wed 01:34:00 PM 20.9952 -82.1126 197° South  Level FlightAware Approximate
Wed 01:35:00 PM 20.9222 -82.1362 197° South  Level FlightAware Approximate
Wed 01:36:00 PM 20.8492 -82.1597 197° South  Level FlightAware Approximate
Wed 01:37:00 PM 20.7762 -82.1832 197° South  Level FlightAware Approximate
Wed 01:38:00 PM 20.7032 -82.2067 197° South  Level FlightAware Approximate
Wed 01:39:00 PM 20.6302 -82.2302 197° South  Level FlightAware Approximate
Wed 01:40:00 PM 20.5572 -82.2537 197° South  Level FlightAware Approximate
Wed 01:41:00 PM 20.4842 -82.2771 197° South  Level FlightAware Approximate
Wed 01:42:00 PM 20.4112 -82.3005 197° South  Level FlightAware Approximate
Wed 01:43:00 PM 20.3382 -82.3239 197° South  Level FlightAware Approximate
Wed 01:44:00 PM 20.2651 -82.3473 197° South  Level FlightAware Approximate
Wed 01:45:00 PM 20.1921 -82.3706 197° South  Level FlightAware Approximate
Wed 01:46:00 PM 20.1191 -82.3939 197° South  Level FlightAware Approximate
Wed 01:47:00 PM 20.0479 -82.4141 215° Southwest  Level FlightAware Approximate
Wed 01:48:00 PM 19.9840 -82.4580 205° Southwest  Level FlightAware Approximate
Wed 01:49:00 PM 19.9149 -82.4923 205° Southwest  Level FlightAware Approximate
Wed 01:50:00 PM 19.8459 -82.5267 205° Southwest  Level FlightAware Approximate
Wed 01:51:00 PM 19.7768 -82.5610 205° Southwest  Level FlightAware Approximate
Wed 01:52:00 PM 19.7078 -82.5953 205° Southwest  Level FlightAware Approximate
Wed 01:53:00 PM 19.6387 -82.6296 205° Southwest  Level FlightAware Approximate
Wed 01:54:00 PM 19.5696 -82.6638 205° Southwest  Level FlightAware Approximate
Wed 01:55:00 PM 19.5005 -82.6980 205° Southwest  Level FlightAware Approximate
Wed 01:56:00 PM 19.4314 -82.7322 205° Southwest  Level FlightAware Approximate
Wed 01:57:00 PM 19.3623 -82.7663 205° Southwest  Level FlightAware Approximate
Wed 01:58:00 PM 19.2932 -82.8005 205° Southwest  Level FlightAware Approximate
Wed 01:59:00 PM 19.2241 -82.8345 205° Southwest  Level FlightAware Approximate
Wed 02:00:00 PM 19.1550 -82.8686 205° Southwest  Level FlightAware Approximate
Wed 02:01:00 PM 19.0858 -82.9026 205° Southwest  Level FlightAware Approximate
Wed 02:02:00 PM 19.0167 -82.9366 205° Southwest  Level FlightAware Approximate
Wed 02:03:00 PM 18.9475 -82.9706 205° Southwest  Level FlightAware Approximate
Wed 02:04:00 PM 18.8784 -83.0045 205° Southwest  Level FlightAware Approximate
Wed 02:05:00 PM 18.8092 -83.0385 205° Southwest  Level FlightAware Approximate
Wed 02:06:00 PM 18.7401 -83.0723 205° Southwest  Level FlightAware Approximate
Wed 02:07:00 PM 18.6709 -83.1062 205° Southwest  Level FlightAware Approximate
Wed 02:08:00 PM 18.6018 -83.1400 205° Southwest  Level FlightAware Approximate
Wed 02:09:00 PM 18.5326 -83.1739 205° Southwest  Level FlightAware Approximate
Wed 02:10:00 PM 18.4634 -83.2076 205° Southwest  Level FlightAware Approximate
Wed 02:11:00 PM 18.3942 -83.2414 205° Southwest  Level FlightAware Approximate
Wed 02:12:00 PM 18.3250 -83.2751 205° Southwest  Level FlightAware Approximate
Wed 02:13:00 PM 18.2558 -83.3088 205° Southwest  Level FlightAware Approximate
Wed 02:14:00 PM 18.1866 -83.3425 205° Southwest  Level FlightAware Approximate
Wed 02:15:00 PM 18.1174 -83.3761 205° Southwest  Level FlightAware Approximate
Wed 02:16:00 PM 18.0482 -83.4097 205° Southwest  Level FlightAware Approximate
Wed 02:17:00 PM 17.9790 -83.4433 205° Southwest  Level FlightAware Approximate
Wed 02:18:00 PM 17.9097 -83.4769 205° Southwest  Level FlightAware Approximate
Wed 02:19:00 PM 17.8405 -83.5104 205° Southwest  Level FlightAware Approximate
Wed 02:20:00 PM 17.7712 -83.5439 205° Southwest  Level FlightAware Approximate
Wed 02:21:00 PM 17.7020 -83.5774 205° Southwest  Level FlightAware Approximate
Wed 02:22:00 PM 17.6327 -83.6109 205° Southwest  Level FlightAware Approximate
Wed 02:23:00 PM 17.5635 -83.6443 205° Southwest  Level FlightAware Approximate
Wed 02:24:00 PM 17.4942 -83.6777 205° Southwest  Level FlightAware Approximate
Wed 02:25:00 PM 17.4249 -83.7111 205° Southwest  Level FlightAware Approximate
Wed 02:26:00 PM 17.3557 -83.7445 205° Southwest  Level FlightAware Approximate
Wed 02:27:00 PM 17.2864 -83.7778 205° Southwest  Level FlightAware Approximate
Wed 02:28:00 PM 17.2171 -83.8111 205° Southwest  Level FlightAware Approximate
Wed 02:29:00 PM 17.1478 -83.8444 205° Southwest  Level FlightAware Approximate
Wed 02:30:00 PM 17.0785 -83.8776 205° Southwest  Level FlightAware Approximate
Wed 02:31:00 PM 17.0092 -83.9109 205° Southwest  Level FlightAware Approximate
Wed 02:32:00 PM 16.9399 -83.9441 205° Southwest  Level FlightAware Approximate
Wed 02:33:00 PM 16.8706 -83.9772 205° Southwest  Level FlightAware Approximate
Wed 02:34:00 PM 16.8012 -84.0104 205° Southwest  Level FlightAware Approximate
Wed 02:35:00 PM 16.7319 -84.0435 205° Southwest  Level FlightAware Approximate
Wed 02:36:00 PM 16.6626 -84.0766 205° Southwest  Level FlightAware Approximate
Wed 02:37:00 PM 16.5932 -84.1096 205° Southwest  Level FlightAware Approximate
Wed 02:38:00 PM 16.5239 -84.1427 205° Southwest  Level FlightAware Approximate
Wed 02:39:00 PM 16.4545 -84.1757 205° Southwest  Level FlightAware Approximate
Wed 02:40:00 PM 16.3852 -84.2087 205° Southwest  Level FlightAware Approximate
Wed 02:41:00 PM 16.3158 -84.2418 205° Southwest  Level FlightAware Approximate
Wed 02:42:00 PM 16.2466 -84.2750 205° Southwest  Level FlightAware Approximate
Wed 02:43:00 PM 16.1774 -84.3083 205° Southwest  Level FlightAware Approximate
Wed 02:44:00 PM 16.1082 -84.3415 205° Southwest  Level FlightAware Approximate
Wed 02:45:00 PM 16.0389 -84.3747 205° Southwest  Level FlightAware Approximate
Wed 02:46:00 PM 15.9697 -84.4079 205° Southwest  Level FlightAware Approximate
Wed 02:47:00 PM 15.9004 -84.4411 205° Southwest  Level FlightAware Approximate
Wed 02:48:00 PM 15.8312 -84.4743 205° Southwest  Level FlightAware Approximate
Wed 02:49:00 PM 15.7619 -84.5074 205° Southwest  Level FlightAware Approximate
Wed 02:50:00 PM 15.6926 -84.5405 205° Southwest  Level FlightAware Approximate
Wed 02:51:00 PM 15.6234 -84.5736 205° Southwest  Level FlightAware Approximate
Wed 02:52:00 PM 15.5541 -84.6066 205° Southwest  Level FlightAware Approximate
Wed 02:53:00 PM 15.4848 -84.6396 205° Southwest  Level FlightAware Approximate
Wed 02:54:00 PM 15.4155 -84.6727 205° Southwest  Level FlightAware Approximate
Wed 02:55:00 PM 15.3463 -84.7057 205° Southwest  Level FlightAware Approximate
Wed 02:56:00 PM 15.2770 -84.7386 205° Southwest  Level FlightAware Approximate
Wed 02:57:00 PM 15.2077 -84.7716 205° Southwest  Level FlightAware Approximate
Wed 02:58:00 PM 15.1384 -84.8045 205° Southwest  Level FlightAware Approximate
Wed 02:59:00 PM 15.0691 -84.8374 205° Southwest  Level FlightAware Approximate
Wed 03:00:00 PM 14.9998 -84.8703 205° Southwest  Level FlightAware Approximate
Wed 03:01:00 PM 14.9304 -84.9031 205° Southwest  Level FlightAware Approximate
Wed 03:02:00 PM 14.8611 -84.9360 205° Southwest  Level FlightAware Approximate
Wed 03:03:00 PM 14.7918 -84.9688 205° Southwest  Level FlightAware Approximate
Wed 03:04:00 PM 14.7225 -85.0017 205° Southwest  Level FlightAware Approximate
Wed 03:05:00 PM 14.6532 -85.0345 205° Southwest  Level FlightAware Approximate
Wed 03:06:00 PM 14.5839 -85.0674 205° Southwest  Level FlightAware Approximate
Wed 03:07:00 PM 14.5146 -85.1002 205° Southwest  Level FlightAware Approximate
Wed 03:08:00 PM 14.4452 -85.1329 205° Southwest  Level FlightAware Approximate
Wed 03:09:00 PM 14.3759 -85.1657 205° Southwest  Level FlightAware Approximate
Wed 03:10:00 PM 14.3066 -85.1984 205° Southwest  Level FlightAware Approximate
Wed 03:11:00 PM 14.2373 -85.2311 205° Southwest  Level FlightAware Approximate
Wed 03:12:00 PM 14.1679 -85.2638 205° Southwest  Level FlightAware Approximate
Wed 03:13:00 PM 14.0986 -85.2965 205° Southwest  Level FlightAware Approximate
Wed 03:14:00 PM 14.0292 -85.3292 205° Southwest  Level FlightAware Approximate
Wed 03:15:00 PM 13.9599 -85.3618 205° Southwest  Level FlightAware Approximate
Wed 03:16:00 PM 13.8905 -85.3944 205° Southwest  Level FlightAware Approximate
Wed 03:17:00 PM 13.8212 -85.4270 205° Southwest  Level FlightAware Approximate
Wed 03:18:00 PM 13.7518 -85.4596 205° Southwest  Level FlightAware Approximate
Wed 03:19:00 PM 13.6824 -85.4921 205° Southwest  Level FlightAware Approximate
Wed 03:20:00 PM 13.6131 -85.5247 205° Southwest  Level FlightAware Approximate
Wed 03:21:00 PM 13.5437 -85.5572 204° Southwest  Level FlightAware Approximate
Wed 03:22:00 PM 13.4743 -85.5897 204° Southwest  Level FlightAware Approximate
Wed 03:23:00 PM 13.4051 -85.6225 206° Southwest  Level FlightAware Approximate
Wed 03:24:00 PM 13.3362 -85.6561 203° Southwest  Level FlightAware Approximate
Wed 03:25:00 PM 13.2662 -85.6873 203° Southwest  Level FlightAware Approximate
Wed 03:26:00 PM 13.1963 -85.7184 203° Southwest  Level FlightAware Approximate
Wed 03:27:00 PM 13.1263 -85.7495 203° Southwest  Level FlightAware Approximate
Wed 03:28:00 PM 13.0563 -85.7805 203° Southwest  Level FlightAware Approximate
Wed 03:29:00 PM 12.9854 -85.8092 201° Southwest  Level FlightAware Approximate
Wed 03:30:00 PM 12.9144 -85.8376 201° Southwest  Level FlightAware Approximate
Wed 03:31:00 PM 12.8439 -85.8675 203° Southwest  Level FlightAware Approximate
Wed 03:32:00 PM 12.7740 -85.8986 203° Southwest  Level FlightAware Approximate
Wed 03:33:00 PM 12.7037 -85.9290 202° Southwest  Level FlightAware Approximate
Wed 03:34:00 PM 12.6331 -85.9584 202° Southwest  Level FlightAware Approximate
Wed 03:35:00 PM 12.5625 -85.9879 202° Southwest  Level FlightAware Approximate
Wed 03:36:00 PM 12.4916 -86.0167 201° Southwest  Level FlightAware Approximate
Wed 03:37:00 PM 12.4206 -86.0451 201° Southwest  Level FlightAware Approximate
Wed 03:38:00 PM 12.3486 -86.0676 213° Southwest  Level FlightAware Approximate
Wed 03:39:00 PM 12.2830 -86.1068 201° Southwest  Level FlightAware Approximate
Wed 03:40:00 PM 12.2118 -86.1345 194° South  Level FlightAware Approximate
Wed 03:41:00 PM 12.1500 -86.1500 194° South  Level FlightAware Approximate
Wed 03:42:00 PM 12.1415 -86.1682 194° South  Level Estimated
Wed 03:43:00 PM 12.1415 -86.1682 194° South  Level Estimated
Wed 03:44:00 PM 12.1415 -86.1682 194° South  Level Estimated
Wed 03:45:00 PM 12.1415 -86.1682 194° South  Level Estimated
Wed 03:46:00 PM 12.1415 -86.1682 194° South  Level Estimated
Wed 03:47:00 PM 12.1415 -86.1682 194° South  Level Estimated
Wed 03:48:00 PM 12.1415 -86.1682 194° South  Level Estimated
Wed 03:49:00 PM 12.1415 -86.1682 194° South  Level Estimated
Wed 03:50:00 PM 12.1415 -86.1682 194° South  Level Estimated

Login

Don't have an account? Register now (free) for customized features, flight alerts, and more!